EGSH METAR and TAF | Updated Today

EGSH METAR

Norwich International Airport

Observation time: 23 min. ago

EGSH 080650Z 18012KT 140V220 9999 FEW044 05/02 Q0984

Need help? Read our tutorial on how to read METARs or read the parsed version below.

Norwich International Airport (EGSH) METAR

  • Weather conditions on Wed, 08 Dec 2021 06:50:00 +0000 (23 min. ago):
  • Present conditions: Dry
  • Clouds: A few at 1341 meters
  • Visibility: Greater than 10 km
  • Wind: 180 degrees at 12 knots
  • Temperature: 5 celsius
  • Dew point: 2 celsius
  • Pressure: 984 millibars
  • Remarks: None


Useful to know...

EGSH TAF

Norwich International Airport

TAF EGSH 080458Z 0806/0815 19015KT 9999 FEW035 TEMPO 0806/0815 20018G28KT PROB30 TEMPO 0812/0815 6000 SHRA BKN014
Observation time: 2:15 hr. ago
Need help? Read our tutorial on how to read TAFs or read the parsed version below.

Parsed version of TAF for Norwich International Airport (EGSH)

  • From 08 December at 06:00 UTC, to day 08 of the month at 15:00 UTC
  • Clouds: A few at 1067 meters
  • Visibility: Greater than 10 km
  • Wind: 190 degrees at 15
  • Expected to arise temporarily, from 08 December at 06:00 UTC, to day 08 of the month at 15:00 UTC
  • Wind: 200 degrees at 18
  • Expected to arise temporarily, from 08 December at 12:00 UTC, to day 08 of the month at 15:00 UTC
    Probability of 30%
  • Clouds: Broken sky at 427 meters
  • Visibility: 6000 meters
  • Other: Showers of rain